Time;durP1;ratioP1;P1;durP2;ratioP2;P2;SDS_P1;SDS_P2;PMS_P1;PMS_P2;Temp;Humidity;BMP_temperature;BMP_pressure;BME280_temperature;BME280_humidity;BME280_pressure;Samples;Min_cycle;Max_cycle;Signal;HPM_P1;HPM_P2
2022/07/29 00:01:48;;;;;;;3.33;1.30;;;;;;;;;;4985319;28;20054;-81
2022/07/29 00:04:14;;;;;;;4.60;1.20;;;;;;;;;;4950428;28;20038;-81
2022/07/29 00:06:40;;;;;;;3.85;1.50;;;;;;;;;;4966937;28;20101;-81
2022/07/29 00:09:06;;;;;;;4.28;1.40;;;;;;;;;;4951581;28;20035;-80
2022/07/29 00:11:38;;;;;;;7.35;1.40;;;;;;;;;;4967934;28;20579;-80
2022/07/29 00:14:04;;;;;;;5.50;1.92;;;;;;;;;;4980669;28;20049;-81
2022/07/29 00:16:31;;;;;;;2.13;1.10;;;;;;;;;;4978094;28;20437;-81
2022/07/29 00:18:57;;;;;;;3.28;1.40;;;;;;;;;;4984425;28;20606;-79
2022/07/29 00:21:23;;;;;;;3.58;1.17;;;;;;;;;;4989918;28;20053;-79
2022/07/29 00:23:49;;;;;;;5.72;2.20;;;;;;;;;;4957159;28;20046;-82
2022/07/29 00:26:15;;;;;;;3.47;2.58;;;;;;;;;;4977641;28;20136;-80
2022/07/29 00:28:42;;;;;;;4.38;1.35;;;;;;;;;;4995081;22;20981;-82
2022/07/29 00:31:08;;;;;;;4.07;1.30;;;;;;;;;;4960421;28;20728;-81
2022/07/29 00:33:34;;;;;;;3.28;1.85;;;;;;;;;;4938957;28;20049;-82
2022/07/29 00:36:00;;;;;;;4.82;1.30;;;;;;;;;;4974317;28;20084;-80
2022/07/29 00:38:26;;;;;;;2.13;1.00;;;;;;;;;;4980397;28;20034;-81
2022/07/29 00:40:52;;;;;;;3.70;1.27;;;;;;;;;;4973771;28;20034;-81
2022/07/29 00:43:18;;;;;;;3.58;1.38;;;;;;;;;;4974355;28;20070;-79
2022/07/29 00:45:44;;;;;;;5.38;1.48;;;;;;;;;;4972212;28;20074;-80
2022/07/29 00:48:11;;;;;;;3.97;1.27;;;;;;;;;;4975187;28;20431;-80
2022/07/29 00:50:37;;;;;;;4.85;1.27;;;;;;;;;;4971048;28;20506;-81
2022/07/29 00:53:04;;;;;;;8.38;1.63;;;;;;;;;;4972810;28;20039;-80
2022/07/29 00:55:30;;;;;;;5.45;1.35;;;;;;;;;;4957833;28;20553;-81
2022/07/29 00:57:57;;;;;;;3.92;1.60;;;;;;;;;;4976931;28;20768;-80
2022/07/29 01:00:24;;;;;;;6.72;1.63;;;;;;;;;;4973009;28;20047;-79
2022/07/29 01:02:51;;;;;;;7.82;2.10;;;;;;;;;;4955758;28;20105;-80
2022/07/29 01:05:18;;;;;;;4.90;1.30;;;;;;;;;;4980740;28;20114;-80
2022/07/29 01:07:45;;;;;;;4.70;1.40;;;;;;;;;;4955724;28;20053;-80
2022/07/29 01:10:12;;;;;;;3.00;1.33;;;;;;;;;;4975502;28;20035;-80
2022/07/29 01:12:39;;;;;;;5.57;1.58;;;;;;;;;;4943760;28;20039;-80
2022/07/29 01:15:06;;;;;;;5.43;1.67;;;;;;;;;;4960022;28;20050;-79
2022/07/29 01:17:41;;;;;;;2.72;1.33;;;;;;;;;;4975433;28;20426;-80
2022/07/29 01:20:13;;;;;;;2.42;1.30;;;;;;;;;;4975526;28;20051;-80
2022/07/29 01:22:51;;;;;;;3.25;1.10;;;;;;;;;;4975977;28;20043;-81
2022/07/29 01:25:28;;;;;;;2.15;1.20;;;;;;;;;;4969095;28;20046;-79
2022/07/29 01:28:13;;;;;;;6.38;1.15;;;;;;;;;;4956145;28;20105;-80
2022/07/29 01:30:41;;;;;;;1.77;1.17;;;;;;;;;;4949926;28;20066;-79
2022/07/29 01:33:10;;;;;;;3.38;1.65;;;;;;;;;;4971187;28;20047;-79
2022/07/29 01:35:40;;;;;;;3.40;1.38;;;;;;;;;;4973617;28;20043;-79
2022/07/29 01:38:13;;;;;;;3.50;1.27;;;;;;;;;;4956256;28;20046;-79
2022/07/29 01:40:49;;;;;;;4.30;1.40;;;;;;;;;;4961571;28;20046;-80
2022/07/29 01:43:19;;;;;;;5.05;1.55;;;;;;;;;;4979058;28;20353;-79
2022/07/29 01:46:02;;;;;;;6.28;1.70;;;;;;;;;;4975579;28;20092;-80
2022/07/29 01:48:43;;;;;;;6.55;1.42;;;;;;;;;;4970312;28;20055;-81
2022/07/29 01:51:20;;;;;;;2.80;1.50;;;;;;;;;;4957879;28;20045;-78
2022/07/29 01:53:51;;;;;;;3.22;1.42;;;;;;;;;;4957416;28;20078;-83
2022/07/29 01:56:19;;;;;;;3.25;1.30;;;;;;;;;;4972119;28;20129;-80
2022/07/29 01:58:55;;;;;;;3.00;1.33;;;;;;;;;;4961567;28;20127;-80
2022/07/29 02:01:22;;;;;;;5.35;1.40;;;;;;;;;;4972306;28;20437;-80
2022/07/29 02:03:48;;;;;;;3.78;1.30;;;;;;;;;;4978256;28;20434;-81
2022/07/29 02:06:16;;;;;;;2.95;1.60;;;;;;;;;;4969031;28;20124;-81
2022/07/29 02:08:46;;;;;;;1.85;1.17;;;;;;;;;;4976367;28;20042;-80
2022/07/29 02:11:12;;;;;;;4.60;2.17;;;;;;;;;;4973243;28;20238;-80
2022/07/29 02:13:39;;;;;;;4.25;1.50;;;;;;;;;;4979276;28;20046;-79
2022/07/29 02:16:07;;;;;;;6.88;1.73;;;;;;;;;;4970317;28;20506;-80
2022/07/29 02:18:34;;;;;;;7.40;1.80;;;;;;;;;;4981878;28;20030;-80
2022/07/29 02:21:00;;;;;;;6.15;1.70;;;;;;;;;;4984935;28;20039;-80
2022/07/29 02:23:26;;;;;;;4.43;1.90;;;;;;;;;;4980056;28;20098;-81
2022/07/29 02:25:59;;;;;;;3.45;1.33;;;;;;;;;;4978812;28;20049;-81
2022/07/29 02:28:33;;;;;;;4.00;1.70;;;;;;;;;;4942164;28;20070;-80
2022/07/29 02:31:01;;;;;;;3.60;1.50;;;;;;;;;;4978733;28;20066;-79
2022/07/29 02:33:28;;;;;;;3.40;1.35;;;;;;;;;;4976042;28;20061;-80
2022/07/29 02:35:55;;;;;;;4.63;1.50;;;;;;;;;;4978537;28;20137;-80
2022/07/29 02:41:15;;;;;;;4.55;1.73;;;;;;;;;;4964062;28;20058;-80
2022/07/29 02:43:43;;;;;;;4.15;1.40;;;;;;;;;;4945132;28;20039;-81
2022/07/29 02:46:12;;;;;;;5.57;1.75;;;;;;;;;;4942540;28;20037;-81
2022/07/29 02:48:41;;;;;;;2.20;1.35;;;;;;;;;;4982984;28;20038;-80
2022/07/29 02:51:18;;;;;;;2.55;1.50;;;;;;;;;;4974854;28;20495;-80
2022/07/29 02:53:48;;;;;;;4.18;1.55;;;;;;;;;;4976219;28;20042;-81
2022/07/29 02:56:16;;;;;;;2.28;1.30;;;;;;;;;;4957067;28;20043;-80
2022/07/29 02:58:50;;;;;;;2.85;1.38;;;;;;;;;;4978289;28;20061;-79
2022/07/29 03:01:21;;;;;;;4.05;1.30;;;;;;;;;;4974292;28;20055;-80
2022/07/29 03:03:52;;;;;;;3.58;1.50;;;;;;;;;;4953405;28;20331;-79
2022/07/29 03:06:19;;;;;;;5.43;1.83;;;;;;;;;;4976293;28;20057;-79
2022/07/29 03:08:46;;;;;;;4.97;1.48;;;;;;;;;;4972510;28;20027;-80
2022/07/29 03:11:13;;;;;;;5.00;1.88;;;;;;;;;;4977860;28;20042;-79
2022/07/29 03:13:40;;;;;;;7.32;2.25;;;;;;;;;;4976803;28;20042;-80
2022/07/29 03:16:07;;;;;;;4.85;2.53;;;;;;;;;;4960698;28;20042;-79
2022/07/29 03:18:42;;;;;;;4.40;1.55;;;;;;;;;;4976167;28;20051;-81
2022/07/29 03:21:08;;;;;;;3.85;1.90;;;;;;;;;;4957796;28;20085;-80
2022/07/29 03:23:34;;;;;;;3.03;1.80;;;;;;;;;;4974944;28;20043;-81
2022/07/29 03:26:00;;;;;;;3.67;1.50;;;;;;;;;;4944113;28;20061;-80
2022/07/29 03:28:27;;;;;;;7.05;1.70;;;;;;;;;;4946904;28;20057;-79
2022/07/29 03:31:17;;;;;;;4.38;1.65;;;;;;;;;;4949734;28;20039;-81
2022/07/29 03:33:44;;;;;;;4.32;1.50;;;;;;;;;;4980254;28;20043;-79
2022/07/29 03:36:10;;;;;;;9.18;1.60;;;;;;;;;;4962815;28;20450;-80
2022/07/29 03:38:37;;;;;;;5.13;1.88;;;;;;;;;;4986754;28;20049;-80
2022/07/29 03:41:08;;;;;;;6.53;1.80;;;;;;;;;;4988302;28;20041;-81
2022/07/29 03:43:36;;;;;;;3.90;1.80;;;;;;;;;;4945158;28;20042;-80
2022/07/29 03:46:04;;;;;;;6.32;1.80;;;;;;;;;;4976889;28;20064;-80
2022/07/29 03:48:33;;;;;;;6.75;2.33;;;;;;;;;;4978972;28;20198;-81
2022/07/29 03:50:59;;;;;;;3.45;1.60;;;;;;;;;;4971657;28;20062;-79
2022/07/29 03:53:28;;;;;;;2.50;1.42;;;;;;;;;;4977769;28;20035;-81
2022/07/29 03:55:57;;;;;;;5.53;2.05;;;;;;;;;;4977326;28;20113;-79
2022/07/29 03:58:23;;;;;;;6.38;2.60;;;;;;;;;;4945249;28;20153;-82
2022/07/29 04:00:50;;;;;;;7.50;1.73;;;;;;;;;;4983251;28;20038;-79
2022/07/29 04:03:16;;;;;;;4.88;1.63;;;;;;;;;;4979130;28;20101;-78
2022/07/29 04:05:42;;;;;;;4.75;1.67;;;;;;;;;;4962100;28;20055;-79
2022/07/29 04:08:08;;;;;;;4.53;1.90;;;;;;;;;;4939309;28;20045;-79
2022/07/29 04:10:34;;;;;;;4.60;2.00;;;;;;;;;;4981678;28;20069;-80
2022/07/29 04:13:01;;;;;;;4.93;1.88;;;;;;;;;;4978784;28;20042;-79
2022/07/29 04:15:28;;;;;;;6.47;1.75;;;;;;;;;;4987149;28;20061;-80
2022/07/29 04:17:54;;;;;;;4.90;1.55;;;;;;;;;;4970414;28;20069;-81
2022/07/29 04:20:48;;;;;;;3.58;1.70;;;;;;;;;;4961858;28;20038;-82
2022/07/29 04:23:14;;;;;;;7.32;1.77;;;;;;;;;;4940211;28;20050;-79
2022/07/29 04:25:41;;;;;;;4.20;1.73;;;;;;;;;;4977327;28;20415;-80
2022/07/29 04:28:07;;;;;;;6.35;1.65;;;;;;;;;;4979685;28;20042;-80
2022/07/29 04:30:34;;;;;;;3.78;1.70;;;;;;;;;;4958089;28;20078;-80
2022/07/29 04:33:01;;;;;;;3.53;1.55;;;;;;;;;;4976060;28;20057;-81
2022/07/29 04:35:27;;;;;;;3.65;1.63;;;;;;;;;;4958590;28;20055;-79
2022/07/29 04:37:53;;;;;;;5.03;1.88;;;;;;;;;;4980271;28;20050;-81
2022/07/29 04:40:22;;;;;;;10.07;1.95;;;;;;;;;;4957169;28;20052;-80
2022/07/29 04:42:49;;;;;;;3.00;1.80;;;;;;;;;;4976826;28;20062;-79
2022/07/29 04:45:15;;;;;;;5.97;1.90;;;;;;;;;;4973646;28;20133;-80
2022/07/29 04:47:41;;;;;;;5.88;1.45;;;;;;;;;;4956814;28;20034;-78
2022/07/29 04:50:08;;;;;;;6.75;1.98;;;;;;;;;;4973559;28;20137;-79
2022/07/29 04:52:35;;;;;;;6.47;1.90;;;;;;;;;;4977206;28;20062;-80
2022/07/29 04:55:04;;;;;;;4.63;1.77;;;;;;;;;;4962405;28;20038;-78
2022/07/29 04:57:31;;;;;;;5.40;1.70;;;;;;;;;;4975936;28;20050;-80
2022/07/29 04:59:59;;;;;;;10.95;2.45;;;;;;;;;;4958849;28;20371;-78
2022/07/29 05:02:25;;;;;;;2.67;1.50;;;;;;;;;;4975633;28;20070;-80
2022/07/29 05:07:40;;;;;;;4.88;1.55;;;;;;;;;;4971639;28;20093;-80
2022/07/29 05:10:06;;;;;;;3.60;1.67;;;;;;;;;;4969006;28;20047;-81
2022/07/29 05:12:32;;;;;;;5.80;1.58;;;;;;;;;;4975056;28;20050;-80
2022/07/29 05:15:05;;;;;;;4.85;1.73;;;;;;;;;;4935216;28;20053;-79
2022/07/29 05:17:40;;;;;;;6.13;1.48;;;;;;;;;;4971560;28;20075;-79
2022/07/29 05:20:09;;;;;;;8.30;1.67;;;;;;;;;;4970024;28;20165;-80
2022/07/29 05:22:44;;;;;;;9.77;1.95;;;;;;;;;;4976080;28;20042;-79
2022/07/29 05:25:10;;;;;;;7.97;1.50;;;;;;;;;;4938477;28;20134;-79
2022/07/29 05:27:36;;;;;;;4.25;1.50;;;;;;;;;;4957950;28;20057;-79
2022/07/29 05:30:03;;;;;;;3.40;1.70;;;;;;;;;;4954465;28;20515;-81
2022/07/29 05:32:36;;;;;;;3.58;1.33;;;;;;;;;;4957426;28;20058;-79
2022/07/29 05:35:06;;;;;;;2.58;1.40;;;;;;;;;;4955291;28;20049;-80
2022/07/29 05:37:32;;;;;;;4.70;1.60;;;;;;;;;;4957245;28;20109;-80
2022/07/29 05:39:58;;;;;;;6.25;1.95;;;;;;;;;;4953669;28;20038;-79
2022/07/29 05:42:25;;;;;;;4.43;1.75;;;;;;;;;;4978477;28;20474;-80
2022/07/29 05:44:53;;;;;;;7.20;1.83;;;;;;;;;;4976550;28;20042;-79
2022/07/29 05:47:22;;;;;;;8.52;1.70;;;;;;;;;;4976402;28;21777;-80
2022/07/29 05:49:48;;;;;;;3.65;1.70;;;;;;;;;;4970300;28;20075;-79
2022/07/29 05:52:15;;;;;;;8.85;1.70;;;;;;;;;;4938764;28;20093;-80
2022/07/29 05:54:41;;;;;;;5.93;1.60;;;;;;;;;;4930176;28;20049;-80
2022/07/29 05:57:07;;;;;;;4.38;1.83;;;;;;;;;;4979224;28;20042;-80
2022/07/29 05:59:42;;;;;;;6.93;1.83;;;;;;;;;;4974725;28;20038;-78
2022/07/29 06:02:26;;;;;;;3.85;1.52;;;;;;;;;;4956847;28;20542;-78
2022/07/29 06:13:41;;;;;;;5.40;2.00;;;;;;;;;;5262576;22;20054;-80
2022/07/29 06:16:19;;;;;;;6.57;1.58;;;;;;;;;;4931862;28;20137;-81
2022/07/29 06:18:45;;;;;;;5.45;1.90;;;;;;;;;;4928858;28;20061;-80
2022/07/29 06:21:11;;;;;;;5.70;1.80;;;;;;;;;;4928400;28;20051;-79
2022/07/29 06:23:38;;;;;;;5.25;1.75;;;;;;;;;;4963714;28;20432;-81
2022/07/29 06:26:05;;;;;;;9.68;2.10;;;;;;;;;;4963434;28;20117;-80
2022/07/29 06:28:31;;;;;;;3.53;1.85;;;;;;;;;;4962017;28;20170;-81
2022/07/29 06:30:57;;;;;;;7.10;1.88;;;;;;;;;;4969788;28;20061;-81
2022/07/29 06:33:23;;;;;;;8.38;1.65;;;;;;;;;;4946374;28;20111;-82
2022/07/29 06:35:49;;;;;;;5.10;1.70;;;;;;;;;;4997375;28;20518;-80
2022/07/29 06:38:16;;;;;;;6.75;1.90;;;;;;;;;;4965160;28;20362;-80
2022/07/29 06:43:44;;;;;;;5.03;1.50;;;;;;;;;;4981930;28;20121;-81
2022/07/29 06:46:22;;;;;;;2.83;1.60;;;;;;;;;;4984053;28;20490;-80
2022/07/29 06:48:48;;;;;;;6.03;1.77;;;;;;;;;;4984180;28;20125;-80
2022/07/29 06:51:16;;;;;;;6.03;1.67;;;;;;;;;;4980436;28;20225;-79
2022/07/29 06:53:42;;;;;;;6.60;1.85;;;;;;;;;;4967551;28;20050;-81
2022/07/29 06:56:08;;;;;;;6.30;2.15;;;;;;;;;;4959473;28;20109;-81
2022/07/29 06:58:40;;;;;;;5.20;1.50;;;;;;;;;;4985292;28;20065;-81
2022/07/29 07:01:07;;;;;;;3.28;1.75;;;;;;;;;;4981417;28;20510;-81
2022/07/29 07:03:33;;;;;;;7.43;2.70;;;;;;;;;;4988144;28;20077;-82
2022/07/29 07:05:59;;;;;;;9.07;1.77;;;;;;;;;;4951771;28;20107;-81
2022/07/29 07:08:29;;;;;;;6.43;2.08;;;;;;;;;;4968225;28;20046;-79
2022/07/29 07:10:56;;;;;;;6.10;2.25;;;;;;;;;;4962667;28;20474;-81
2022/07/29 07:13:22;;;;;;;4.80;1.80;;;;;;;;;;4982587;28;20161;-81
2022/07/29 07:15:50;;;;;;;6.15;1.90;;;;;;;;;;4964234;28;20065;-81
2022/07/29 07:18:17;;;;;;;8.57;2.00;;;;;;;;;;4966157;28;20136;-83
2022/07/29 07:20:43;;;;;;;5.72;1.95;;;;;;;;;;4953597;28;20193;-81
2022/07/29 07:23:15;;;;;;;7.40;2.03;;;;;;;;;;4984439;28;20046;-83
2022/07/29 07:25:41;;;;;;;11.48;1.90;;;;;;;;;;4988373;28;20192;-81
2022/07/29 07:28:08;;;;;;;7.38;2.00;;;;;;;;;;4965112;28;20573;-81
2022/07/29 07:30:40;;;;;;;4.07;2.08;;;;;;;;;;4968745;28;20525;-80
2022/07/29 07:33:06;;;;;;;4.30;1.75;;;;;;;;;;4984822;28;20043;-81
2022/07/29 07:35:33;;;;;;;4.95;1.77;;;;;;;;;;4941581;28;20045;-81
2022/07/29 07:37:59;;;;;;;7.80;2.20;;;;;;;;;;4983599;28;20065;-82
2022/07/29 07:40:25;;;;;;;4.90;1.65;;;;;;;;;;4986612;28;20034;-80
2022/07/29 07:42:51;;;;;;;3.58;1.90;;;;;;;;;;4978317;28;20044;-80
2022/07/29 07:45:17;;;;;;;3.28;1.70;;;;;;;;;;4969877;28;20176;-80
2022/07/29 07:47:44;;;;;;;4.80;1.65;;;;;;;;;;4995321;28;20038;-81
2022/07/29 07:50:19;;;;;;;7.13;1.80;;;;;;;;;;4945806;28;20050;-80
2022/07/29 07:52:57;;;;;;;4.20;1.98;;;;;;;;;;4999380;28;20633;-79
2022/07/29 07:55:29;;;;;;;;;;;;;;;;;;4988292;28;20030;-81
2022/07/29 08:08:35;;;;;;;7.72;2.08;;;;;;;;;;4984305;28;20049;-84
2022/07/29 08:11:03;;;;;;;5.15;1.95;;;;;;;;;;4982091;28;20141;-81
2022/07/29 08:14:01;;;;;;;4.82;1.80;;;;;;;;;;4994058;28;20047;-82
2022/07/29 08:16:31;;;;;;;5.60;1.98;;;;;;;;;;4982375;28;20511;-82
2022/07/29 08:18:57;;;;;;;6.30;1.98;;;;;;;;;;4991061;28;20030;-82
2022/07/29 08:21:24;;;;;;;8.30;1.90;;;;;;;;;;4984478;28;20125;-82
2022/07/29 08:23:52;;;;;;;5.47;1.88;;;;;;;;;;4953741;28;20471;-81
2022/07/29 08:26:19;;;;;;;6.72;2.05;;;;;;;;;;4948696;28;20112;-81
2022/07/29 08:28:49;;;;;;;5.45;2.03;;;;;;;;;;4938555;28;20066;-79
2022/07/29 08:31:15;;;;;;;6.70;2.47;;;;;;;;;;4983376;28;20038;-79
2022/07/29 08:33:42;;;;;;;11.07;2.28;;;;;;;;;;4974880;28;20175;-82
2022/07/29 08:36:08;;;;;;;7.55;1.77;;;;;;;;;;4956340;28;20042;-79
2022/07/29 08:38:34;;;;;;;6.85;2.30;;;;;;;;;;4980158;28;20030;-80
2022/07/29 08:41:03;;;;;;;8.27;2.05;;;;;;;;;;4984741;28;20057;-80
2022/07/29 08:43:29;;;;;;;6.07;2.05;;;;;;;;;;4954673;28;20053;-79
2022/07/29 08:46:05;;;;;;;5.38;2.20;;;;;;;;;;4983255;28;20048;-81
2022/07/29 08:48:31;;;;;;;4.15;1.92;;;;;;;;;;4966071;28;20101;-79
2022/07/29 08:51:22;;;;;;;3.85;1.80;;;;;;;;;;4985641;28;20042;-80
2022/07/29 08:53:49;;;;;;;3.30;1.83;;;;;;;;;;4967677;28;20038;-81
2022/07/29 08:56:17;;;;;;;3.58;1.98;;;;;;;;;;4987137;28;20030;-79
2022/07/29 08:58:44;;;;;;;5.65;2.35;;;;;;;;;;4975298;28;20054;-81
2022/07/29 09:01:11;;;;;;;7.55;2.15;;;;;;;;;;4989891;28;20434;-81
2022/07/29 09:03:38;;;;;;;7.20;2.38;;;;;;;;;;4992221;28;20093;-79
2022/07/29 09:06:31;;;;;;;6.22;2.15;;;;;;;;;;4980637;28;20065;-81
2022/07/29 09:09:22;;;;;;;6.47;1.95;;;20.50;99.90;;;;;;4979029;28;20053;-80
2022/07/29 09:11:48;;;;;;;4.15;1.90;;;;;;;;;;4990786;28;20057;-81
2022/07/29 09:14:15;;;;;;;6.65;2.33;;;;;;;;;;4959129;28;20515;-81
2022/07/29 09:16:56;;;;;;;4.75;1.88;;;;;;;;;;4977074;28;20471;-81
2022/07/29 09:19:30;;;;;;;6.15;2.10;;;;;;;;;;4982755;28;20038;-81
2022/07/29 09:22:00;;;;;;;5.18;2.03;;;;;;;;;;4964309;28;20053;-81
2022/07/29 09:24:36;;;;;;;5.25;2.50;;;;;;;;;;4981761;28;20042;-82
2022/07/29 09:27:17;;;;;;;5.97;2.50;;;;;;;;;;4981604;28;20057;-77
2022/07/29 09:29:43;;;;;;;4.43;2.30;;;;;;;;;;4982484;28;21093;-79
2022/07/29 09:32:18;;;;;;;6.10;2.10;;;;;;;;;;4981774;28;20042;-79
2022/07/29 09:34:44;;;;;;;6.63;2.50;;;;;;;;;;4965472;28;20082;-78
2022/07/29 09:37:11;;;;;;;6.03;2.45;;;;;;;;;;4986486;28;20046;-79
2022/07/29 09:39:45;;;;;;;4.50;2.35;;;;;;;;;;4964102;28;20065;-79
2022/07/29 09:42:11;;;;;;;6.72;2.22;;;;;;;;;;4986038;28;20035;-78
2022/07/29 09:44:44;;;;;;;8.02;2.25;;;;;;;;;;4985408;28;20558;-81
2022/07/29 09:47:10;;;;;;;6.35;2.60;;;;;;;;;;4986027;28;20097;-79
2022/07/29 09:50:00;;;;;;;6.53;2.40;;;;;;;;;;4987707;28;20049;-78
2022/07/29 09:52:57;;;;;;;9.35;2.70;;;;;;;;;;4975342;28;20090;-80
2022/07/29 09:55:23;;;;;;;4.82;2.42;;;;;;;;;;4980639;28;20069;-78
2022/07/29 09:58:10;;;;;;;7.55;2.72;;;;;;;;;;4958518;28;20052;-79
2022/07/29 10:00:42;;;;;;;7.53;3.00;;;;;;;;;;4974372;28;20145;-80
2022/07/29 10:03:51;;;;;;;9.82;2.50;;;;;;;;;;4978273;28;20090;-79
2022/07/29 10:06:20;;;;;;;4.70;2.55;;;;;;;;;;4970001;28;20355;-80
2022/07/29 10:08:52;;;;;;;4.97;2.40;;;;;;;;;;4985965;28;20066;-79
2022/07/29 10:11:19;;;;;;;7.10;3.03;;;;;;;;;;4986383;28;20046;-79
2022/07/29 10:13:46;;;;;;;5.35;2.20;;;;;;;;;;4980549;28;20042;-80
2022/07/29 10:16:15;;;;;;;9.40;3.08;;;;;;;;;;4983444;28;20061;-80
2022/07/29 10:18:43;;;;;;;7.30;2.80;;;;;;;;;;4981062;28;20548;-80
2022/07/29 10:21:12;;;;;;;11.32;3.40;;;;;;;;;;4974193;28;20090;-79
2022/07/29 10:23:42;;;;;;;4.97;2.60;;;;;;;;;;4980520;28;20406;-79
2022/07/29 10:26:10;;;;;;;7.78;2.72;;;;;;;;;;4970419;28;20501;-81
2022/07/29 10:28:38;;;;;;;8.68;2.67;;;;;;;;;;4983270;28;20117;-79
2022/07/29 10:31:32;;;;;;;8.80;2.90;;;;;;;;;;4967324;28;20049;-79
2022/07/29 10:34:17;;;;;;;8.45;2.70;;;;;;;;;;4929137;29;20159;-79
2022/07/29 10:37:11;;;;;;;13.35;2.85;;;;;;;;;;4924844;29;20138;-78
2022/07/29 10:39:45;;;;;;;6.35;2.83;;;;;;;;;;4981305;28;20065;-80
2022/07/29 10:42:11;;;;;;;6.53;2.50;;;;;;;;;;4996451;28;20043;-79
2022/07/29 10:44:40;;;;;;;6.35;2.78;;;;;;;;;;4988527;28;20038;-79
2022/07/29 10:47:06;;;;;;;5.07;2.60;;;;;;;;;;4989981;28;20084;-80
2022/07/29 10:49:32;;;;;;;6.53;2.22;;;;;;;;;;4992658;28;20145;-80
2022/07/29 10:52:06;;;;;;;5.45;2.28;;;;;;;;;;4992618;28;20054;-79
2022/07/29 10:54:38;;;;;;;5.70;2.40;;;;;;;;;;4992413;28;20050;-79
2022/07/29 10:57:37;;;;;;;10.10;2.35;;;;;;;;;;4976671;28;20049;-79
2022/07/29 11:00:08;;;;;;;7.93;2.78;;;;;;;;;;4986958;28;20046;-80
2022/07/29 11:02:35;;;;;;;8.02;2.60;;;;;;;;;;4988423;28;20050;-80
2022/07/29 11:05:05;;;;;;;9.85;3.47;;;;;;;;;;4987906;28;20479;-78
2022/07/29 11:07:50;;;;;;;7.28;2.80;;;;;;;;;;4989129;28;20050;-79
2022/07/29 11:10:16;;;;;;;6.60;2.72;;;;;;;;;;4988710;28;20529;-80
2022/07/29 11:12:42;;;;;;;14.73;2.80;;;;;;;;;;4969453;28;20096;-79
2022/07/29 11:15:21;;;;;;;7.03;2.53;;;;;;;;;;4972232;28;20166;-79
2022/07/29 11:18:00;;;;;;;7.75;2.60;;;;;;;;;;4976125;28;20047;-78
2022/07/29 11:20:39;;;;;;;7.28;2.65;;;;;;;;;;4987137;28;20142;-79
2022/07/29 11:23:26;;;;;;;7.10;2.80;;;;;;;;;;5001385;28;20090;-79
2022/07/29 11:26:10;;;;;;;8.32;2.40;;;;;;;;;;4991919;28;20575;-78
2022/07/29 11:28:48;;;;;;;10.45;2.53;;;;;;;;;;4970108;28;20046;-80
2022/07/29 11:31:33;;;;;;;7.28;3.10;;;;;;;;;;4990780;28;20050;-79
2022/07/29 11:34:36;;;;;;;15.38;2.80;;;;;;;;;;4978911;28;20031;-80
2022/07/29 11:37:13;;;;;;;10.13;2.70;;;;;;;;;;4999678;28;20042;-79
2022/07/29 11:39:43;;;;;;;3.95;2.40;;;;;;;;;;4999602;28;20046;-81
2022/07/29 11:42:24;;;;;;;5.65;2.17;;;;;;;;;;4994534;28;20030;-79
2022/07/29 11:44:56;;;;;;;7.10;2.35;;;;;;;;;;4961604;28;20050;-80
2022/07/29 11:47:23;;;;;;;8.68;2.60;;;;;;;;;;4980197;28;20061;-80
2022/07/29 11:49:50;;;;;;;7.57;2.55;;;;;;;;;;4985265;28;20502;-79
2022/07/29 11:52:32;;;;;;;11.40;2.65;;;;;;;;;;4959288;28;20177;-80
2022/07/29 11:54:59;;;;;;;8.68;2.50;;;;;;;;;;4996043;28;20035;-81
2022/07/29 11:57:28;;;;;;;6.25;2.40;;;;;;;;;;4996119;28;20070;-80
2022/07/29 12:00:18;;;;;;;5.93;2.33;;;;;;;;;;4994530;28;20073;-82
2022/07/29 12:02:55;;;;;;;5.43;2.25;;;;;;;;;;4988043;28;20471;-82
2022/07/29 12:08:40;;;;;;;9.95;2.15;;;;;;;;;;4971001;28;20074;-81
2022/07/29 12:11:17;;;;;;;7.25;2.60;;;;;;;;;;4982018;28;20079;-81
2022/07/29 12:13:56;;;;;;;7.50;2.50;;;;;;;;;;4990303;28;20054;-80
2022/07/29 12:16:35;;;;;;;6.88;2.25;;;;;;;;;;4984929;28;20069;-80
2022/07/29 12:19:14;;;;;;;3.35;2.33;;;;;;;;;;4966073;28;20128;-81
2022/07/29 12:22:03;;;;;;;6.50;2.30;;;;;;;;;;4983523;28;20069;-81
2022/07/29 12:24:42;;;;;;;6.97;2.30;;;;;;;;;;4949960;28;20051;-82
2022/07/29 12:27:09;;;;;;;5.55;2.60;;;;;;;;;;4985320;28;20138;-82
2022/07/29 12:29:35;;;;;;;11.15;2.65;;;;;;;;;;4968695;28;20106;-81
2022/07/29 12:32:10;;;;;;;11.35;2.97;;;;;;;;;;4987359;28;20042;-81
2022/07/29 12:34:56;;;;;;;7.32;2.88;;;;;;;;;;4985161;28;20043;-80
2022/07/29 12:37:31;;;;;;;13.13;3.10;;;;;;;;;;4969131;28;20054;-80
2022/07/29 12:40:08;;;;;;;7.30;2.20;;;;;;;;;;4941892;28;20120;-82
2022/07/29 12:42:35;;;;;;;4.38;2.00;;;;;;;;;;4970010;28;20463;-83
2022/07/29 12:51:43;;;;;;;7.68;2.40;;;;;;;;;;4989816;28;20086;-83
2022/07/29 12:54:15;;;;;;;4.47;2.35;;;;;;;;;;4957649;28;20114;-82
2022/07/29 12:57:03;;;;;;;7.25;2.40;;;;;;;;;;4963430;28;20080;-82
2022/07/29 13:02:58;;;;;;;8.93;2.60;;;;;;;;;;5002991;23;20478;-83
2022/07/29 13:21:31;;;;;;;5.50;2.13;;;;;;;;;;4971633;28;20089;-82
2022/07/29 13:41:23;;;;;;;7.78;2.47;;;;;;;;;;5013906;22;20093;-81
2022/07/29 13:54:11;;;;;;;10.73;2.15;;;;;;;;;;4966076;28;20061;-81
2022/07/29 14:08:52;;;;;;;6.15;2.17;;;24.00;99.90;;;;;;4985349;22;20398;-82
2022/07/29 14:34:36;;;;;;;7.85;2.03;;;;;;;;;;5040380;23;20498;-82
2022/07/29 15:07:15;;;;;;;10.57;3.00;;;;;;;;;;5023205;24;20423;-83
2022/07/29 15:10:15;;;;;;;10.30;3.30;;;;;;;;;;4805932;29;20131;-84
2022/07/29 15:16:35;;;;;;;8.23;2.60;;;;;;;;;;4837298;29;20141;-81
2022/07/29 15:22:46;;;;;;;7.65;2.42;;;;;;;;;;4852385;23;20064;-82
2022/07/29 15:49:30;;;;;;;11.68;2.67;;;23.90;99.90;;;;;;4905781;23;20050;31
2022/07/29 15:59:52;;;;;;;6.63;2.22;;;;;;;;;;4868626;23;20034;-82
2022/07/29 16:58:10;;;;;;;7.45;2.50;;;;;;;;;;4879740;23;20134;-88
2022/07/29 17:33:31;;;;;;;7.70;2.50;;;;;;;;;;5112412;23;20106;-91
2022/07/29 18:00:17;;;;;;;8.90;2.70;;;;;;;;;;4836309;29;20065;-82
2022/07/29 18:02:43;;;;;;;15.05;2.65;;;;;;;;;;4839561;29;20530;-82
2022/07/29 18:05:09;;;;;;;6.85;2.45;;;;;;;;;;4818610;29;20077;-82
2022/07/29 18:07:56;;;;;;;6.78;2.60;;;23.40;99.90;;;;;;4827412;29;20061;-82
2022/07/29 18:10:22;;;;;;;5.50;2.40;;;;;;;;;;4824283;29;20156;-83
2022/07/29 18:32:57;;;;;;;6.63;2.95;;;;;;;;;;4844024;29;20053;-86
2022/07/29 18:35:24;;;;;;;8.65;2.60;;;;;;;;;;4833159;29;20050;-85
2022/07/29 18:40:29;;;;;;;5.70;2.00;;;;;;;;;;4861799;23;20061;-83
2022/07/29 18:43:14;;;;;;;6.93;2.30;;;;;;;;;;4846933;29;20097;-85
2022/07/29 18:45:50;;;;;;;8.90;2.33;;;;;;;;;;4862428;29;20136;-86
2022/07/29 18:48:36;;;;;;;8.93;2.60;;;;;;;;;;4852968;29;20084;-86
2022/07/29 20:42:42;;;;;;;7.27;3.10;;;;;;;;;;4853980;29;20048;-85
2022/07/29 20:45:35;;;;;;;10.00;3.30;;;;;;;;;;4867366;23;20056;-86
2022/07/29 20:48:05;;;;;;;7.32;3.45;;;;;;;;;;4870753;29;20057;-84
2022/07/29 20:54:37;;;;;;;11.05;3.05;;;;;;;;;;4782196;29;20053;-88
2022/07/29 21:20:11;;;;;;;6.28;2.97;;;;;;;;;;4891913;23;20416;-89
2022/07/29 21:25:57;;;;;;;6.75;3.85;;;;;;;;;;4867290;23;20057;-89
2022/07/29 21:56:01;;;;;;;11.47;4.73;;;;;;;;;;4829465;29;20181;-90
2022/07/29 22:12:01;;;;;;;8.70;4.07;;;;;;;;;;4832464;23;20142;-86
2022/07/29 22:14:53;;;;;;;7.82;4.22;;;;;;;;;;4855426;24;20388;-89
2022/07/29 22:17:19;;;;;;;10.20;4.47;;;;;;;;;;4886756;23;20271;-88
2022/07/29 22:20:06;;;;;;;7.70;4.28;;;;;;;;;;4849137;29;20048;-87
2022/07/29 22:23:09;;;;;;;9.68;4.35;;;;;;;;;;4861838;23;20090;-88
2022/07/29 22:29:37;;;;;;;9.13;4.28;;;;;;;;;;4843856;29;20601;-89
2022/07/29 22:43:26;;;;;;;7.22;4.30;;;17.00;99.90;;;;;;4879425;23;20193;-88
2022/07/29 22:49:52;;;;;;;10.57;5.07;;;;;;;;;;4873532;23;21481;-89
2022/07/29 23:17:40;;;;;;;11.82;5.53;;;;;;;;;;4922381;23;20065;-88
2022/07/29 23:20:07;;;;;;;9.18;5.32;;;;;;;;;;4874588;23;20198;-88
2022/07/29 23:25:05;;;;;;;14.40;6.68;;;;;;;;;;4850045;29;20050;-90
2022/07/29 23:27:39;;;;;;;9.40;5.72;;;;;;;;;;4842502;29;20406;-88
2022/07/29 23:30:05;;;;;;;7.85;5.00;;;;;;;;;;4845643;29;20045;-88
2022/07/29 23:32:31;;;;;;;11.60;6.80;;;;;;;;;;4846340;29;20045;-89
2022/07/29 23:35:16;;;;;;;10.07;5.88;;;;;;;;;;4845193;29;20552;-89
2022/07/29 23:37:52;;;;;;;19.67;5.80;;;;;;;;;;4845426;29;20083;-89
2022/07/29 23:40:36;;;;;;;9.63;5.30;;;;;;;;;;4845619;29;20037;-89
2022/07/29 23:43:11;;;;;;;;;;;16.60;99.90;;;;;;4829909;29;20086;-89
2022/07/29 23:45:45;;;;;;;8.35;5.18;;;;;;;;;;4826983;29;19924;-89
2022/07/29 23:48:15;;;;;;;12.00;6.13;;;;;;;;;;4829324;29;20142;-89
2022/07/29 23:50:56;;;;;;;10.82;5.57;;;;;;;;;;4823877;29;20070;-87
2022/07/29 23:53:36;;;;;;;5.95;4.90;;;;;;;;;;4844845;29;20113;-89
2022/07/29 23:58:40;;;;;;;13.75;6.30;;;;;;;;;;4861996;23;20523;-89
